createdAt,value
2018-07-02T00:00:21.963Z,15.50
2018-07-02T00:02:50.914Z,15.40
2018-07-02T00:05:19.834Z,15.30
2018-07-02T00:07:48.711Z,15.30
2018-07-02T00:10:17.589Z,15.30
2018-07-02T00:12:46.486Z,15.30
2018-07-02T00:15:15.392Z,15.30
2018-07-02T00:17:44.271Z,15.30
2018-07-02T00:20:13.175Z,15.30
2018-07-02T00:22:42.045Z,15.20
2018-07-02T00:25:10.977Z,15.20
2018-07-02T00:27:39.833Z,15.20
2018-07-02T00:30:08.765Z,15.00
2018-07-02T00:32:37.695Z,15.00
2018-07-02T00:35:06.598Z,14.80
2018-07-02T00:37:35.454Z,14.40
2018-07-02T00:40:04.426Z,14.50
2018-07-02T00:42:33.340Z,14.50
2018-07-02T00:45:02.294Z,14.50
2018-07-02T00:47:31.285Z,14.50
2018-07-02T00:50:00.170Z,14.50
2018-07-02T00:52:29.094Z,14.50
2018-07-02T00:54:58.038Z,14.30
2018-07-02T00:57:26.954Z,14.30
2018-07-02T01:00:01.203Z,14.30
2018-07-02T01:02:30.101Z,14.00
2018-07-02T01:04:59.001Z,14.00
2018-07-02T01:07:27.901Z,14.00
2018-07-02T01:09:56.807Z,14.00
2018-07-02T01:12:25.726Z,13.90
2018-07-02T01:14:54.646Z,13.90
2018-07-02T01:17:23.610Z,13.90
2018-07-02T01:19:52.570Z,13.90
2018-07-02T01:22:21.470Z,13.80
2018-07-02T01:24:50.389Z,13.80
2018-07-02T01:27:19.416Z,13.80
2018-07-02T01:29:48.322Z,13.90
2018-07-02T01:32:17.237Z,13.80
2018-07-02T01:34:46.166Z,13.60
2018-07-02T01:37:15.089Z,13.60
2018-07-02T01:39:44.006Z,13.60
2018-07-02T01:42:12.914Z,13.50
2018-07-02T01:44:42.014Z,13.50
2018-07-02T01:49:39.398Z,13.40
2018-07-02T01:52:08.290Z,13.30
2018-07-02T01:54:37.181Z,13.40
2018-07-02T01:57:06.055Z,13.20
2018-07-02T01:59:34.938Z,13.20
2018-07-02T02:02:03.894Z,13.20
2018-07-02T02:04:32.790Z,13.20
2018-07-02T02:07:01.671Z,13.20
2018-07-02T02:09:30.577Z,13.20
2018-07-02T02:11:59.457Z,13.20
2018-07-02T02:14:28.329Z,13.10
2018-07-02T02:16:57.217Z,13.10
2018-07-02T02:19:26.290Z,13.00
2018-07-02T02:21:55.185Z,13.00
2018-07-02T02:24:24.081Z,12.90
2018-07-02T02:26:53.038Z,12.80
2018-07-02T02:29:21.974Z,12.70
2018-07-02T02:31:50.902Z,12.60
2018-07-02T02:34:19.867Z,12.70
2018-07-02T02:36:48.795Z,12.70
2018-07-02T02:39:17.699Z,12.60
2018-07-02T02:41:46.603Z,12.60
2018-07-02T02:44:15.489Z,12.60
2018-07-02T02:46:44.405Z,12.60
2018-07-02T02:49:13.348Z,12.30
2018-07-02T02:51:42.264Z,12.30
2018-07-02T02:54:11.122Z,12.30
2018-07-02T02:56:40.068Z,12.30
2018-07-02T03:01:37.577Z,12.30
2018-07-02T03:04:06.533Z,12.20
2018-07-02T03:06:35.474Z,12.30
2018-07-02T03:09:06.809Z,12.30
2018-07-02T03:11:35.746Z,12.20
2018-07-02T03:14:04.837Z,12.20
2018-07-02T03:16:33.753Z,12.20
2018-07-02T03:19:02.650Z,12.20
2018-07-02T03:21:31.632Z,12.20
2018-07-02T03:24:00.532Z,12.00
2018-07-02T03:26:29.478Z,12.10
2018-07-02T03:28:58.503Z,12.00
2018-07-02T03:31:27.394Z,12.00
2018-07-02T03:33:56.266Z,12.00
2018-07-02T03:36:25.170Z,11.90
2018-07-02T03:38:54.149Z,11.80
2018-07-02T03:41:23.038Z,11.90
2018-07-02T03:43:51.929Z,11.80
2018-07-02T03:46:21.007Z,11.90
2018-07-02T03:48:49.877Z,11.90
2018-07-02T03:51:18.766Z,11.90
2018-07-02T03:53:47.689Z,11.80
2018-07-02T03:56:16.597Z,11.90
2018-07-02T03:58:45.506Z,11.90
2018-07-02T04:01:14.444Z,11.80
2018-07-02T04:03:44.150Z,11.80
2018-07-02T04:06:13.137Z,12.00
2018-07-02T04:08:42.110Z,12.00
2018-07-02T04:11:10.990Z,12.20
2018-07-02T04:13:39.879Z,12.30
2018-07-02T04:16:08.848Z,12.30
2018-07-02T04:18:38.070Z,12.40
2018-07-02T04:21:06.990Z,12.40
2018-07-02T04:23:35.862Z,12.50
2018-07-02T04:26:04.817Z,12.60
2018-07-02T04:28:33.698Z,12.80
2018-07-02T04:33:31.102Z,12.90
2018-07-02T04:36:00.034Z,13.00
2018-07-02T04:38:28.915Z,13.10
2018-07-02T04:40:57.797Z,13.30
2018-07-02T04:43:26.731Z,13.40
2018-07-02T04:45:55.671Z,13.50
2018-07-02T04:48:24.585Z,13.70
2018-07-02T04:50:53.541Z,13.80
2018-07-02T04:53:22.448Z,13.90
2018-07-02T04:55:51.421Z,14.00
2018-07-02T04:58:20.474Z,14.10
2018-07-02T05:00:49.477Z,14.20
2018-07-02T05:03:18.372Z,14.30
2018-07-02T05:05:47.260Z,14.40
2018-07-02T05:08:16.162Z,14.50
2018-07-02T05:10:45.087Z,14.50
2018-07-02T05:13:13.950Z,14.60
2018-07-02T05:15:42.866Z,14.70
2018-07-02T05:18:11.801Z,14.80
2018-07-02T05:20:40.815Z,14.90
2018-07-02T05:23:09.758Z,15.00
2018-07-02T05:25:38.620Z,15.10
2018-07-02T05:28:07.602Z,15.30
2018-07-02T05:30:36.545Z,15.30
2018-07-02T05:33:05.420Z,15.20
2018-07-02T05:35:34.294Z,15.30
2018-07-02T05:38:03.262Z,15.30
2018-07-02T05:40:32.248Z,15.40
2018-07-02T05:43:01.391Z,15.40
2018-07-02T05:45:30.313Z,15.50
2018-07-02T05:47:59.617Z,15.50
2018-07-02T05:50:28.511Z,15.50
2018-07-02T05:52:57.392Z,15.60
2018-07-02T05:55:26.286Z,15.70
2018-07-02T05:57:55.185Z,15.70
2018-07-02T06:00:24.174Z,15.60
2018-07-02T06:02:53.249Z,15.70
2018-07-02T06:05:22.149Z,15.70
2018-07-02T06:07:51.260Z,15.70
2018-07-02T06:10:20.518Z,15.80
2018-07-02T06:12:49.507Z,15.90
2018-07-02T06:15:18.675Z,16.00
2018-07-02T06:17:47.542Z,16.00
2018-07-02T06:20:16.410Z,16.20
2018-07-02T06:22:45.297Z,16.20
2018-07-02T06:25:14.283Z,16.30
2018-07-02T06:27:43.202Z,16.40
2018-07-02T06:30:12.178Z,16.50
2018-07-02T06:32:41.034Z,16.50
2018-07-02T06:35:09.919Z,16.50
2018-07-02T06:37:38.854Z,16.50
2018-07-02T06:40:07.750Z,16.60
2018-07-02T06:42:36.671Z,16.80
2018-07-02T06:45:05.735Z,16.90
2018-07-02T06:47:34.645Z,17.00
2018-07-02T06:50:03.579Z,17.10
2018-07-02T06:52:32.482Z,17.30
2018-07-02T06:55:01.362Z,17.30
2018-07-02T06:57:30.286Z,17.30
2018-07-02T06:59:59.163Z,17.40
2018-07-02T07:02:28.066Z,17.70
2018-07-02T07:04:56.978Z,17.90
2018-07-02T07:07:25.936Z,17.90
2018-07-02T07:09:54.855Z,18.00
2018-07-02T07:12:23.783Z,17.80
2018-07-02T07:14:52.730Z,18.00
2018-07-02T07:17:21.730Z,18.20
2018-07-02T07:19:50.671Z,18.50
2018-07-02T07:22:19.614Z,18.50
2018-07-02T07:24:48.486Z,18.70
2018-07-02T07:27:17.402Z,18.70
2018-07-02T07:29:46.282Z,18.70
2018-07-02T07:32:15.198Z,18.70
2018-07-02T07:34:44.073Z,18.80
2018-07-02T07:37:12.993Z,18.70
2018-07-02T07:39:41.853Z,18.90
2018-07-02T07:42:10.740Z,18.80
2018-07-02T07:44:39.610Z,19.00
2018-07-02T07:47:08.499Z,19.20
2018-07-02T07:49:37.411Z,19.40
2018-07-02T07:52:06.371Z,19.50
2018-07-02T07:54:35.266Z,19.60
2018-07-02T07:57:04.186Z,19.80
2018-07-02T07:59:33.139Z,19.70
2018-07-02T08:02:02.039Z,19.90
2018-07-02T08:04:30.911Z,19.80
2018-07-02T08:06:59.841Z,20.10
2018-07-02T08:09:28.698Z,20.30
2018-07-02T08:11:57.671Z,20.20
2018-07-02T08:14:26.555Z,20.20
2018-07-02T08:16:55.451Z,20.50
2018-07-02T08:19:24.386Z,20.60
2018-07-02T08:21:53.577Z,20.60
2018-07-02T08:24:22.617Z,20.60
2018-07-02T08:26:51.670Z,20.70
2018-07-02T08:29:20.656Z,20.60
2018-07-02T08:31:49.578Z,20.50
2018-07-02T08:34:18.525Z,20.50
2018-07-02T08:36:47.454Z,20.70
2018-07-02T08:39:16.401Z,20.70
2018-07-02T08:41:45.329Z,20.70
2018-07-02T08:44:14.318Z,20.60
2018-07-02T08:46:43.179Z,20.40
2018-07-02T08:49:12.073Z,20.70
2018-07-02T08:51:40.986Z,20.80
2018-07-02T08:54:09.952Z,21.00
2018-07-02T08:56:38.850Z,21.40
2018-07-02T08:59:07.747Z,21.40
2018-07-02T09:01:37.954Z,21.30
2018-07-02T09:04:07.006Z,21.70
2018-07-02T09:06:35.889Z,21.70
2018-07-02T09:09:08.254Z,21.80
2018-07-02T09:11:37.395Z,21.90
2018-07-02T09:14:06.380Z,22.20
2018-07-02T09:16:35.331Z,22.40
2018-07-02T09:19:04.250Z,22.30
2018-07-02T09:21:33.202Z,22.50
2018-07-02T09:24:02.336Z,22.20
2018-07-02T09:26:31.205Z,22.40
2018-07-02T09:29:00.106Z,22.20
2018-07-02T09:31:29.167Z,22.20
2018-07-02T09:33:58.507Z,22.30
2018-07-02T09:36:27.315Z,22.60
2018-07-02T09:38:56.283Z,22.50
2018-07-02T09:41:25.294Z,22.50
2018-07-02T09:43:54.520Z,22.70
2018-07-02T09:46:23.506Z,22.80
2018-07-02T09:48:52.464Z,23.10
2018-07-02T09:51:21.620Z,23.30
2018-07-02T09:53:50.578Z,23.50
2018-07-02T09:56:19.590Z,23.60
2018-07-02T09:58:48.503Z,23.40
2018-07-02T10:01:17.391Z,23.20
2018-07-02T10:03:46.489Z,23.40
2018-07-02T10:06:15.519Z,23.50
2018-07-02T10:08:44.861Z,23.80
2018-07-02T10:11:13.926Z,23.60
2018-07-02T10:13:42.867Z,23.90
2018-07-02T10:16:11.846Z,23.60
2018-07-02T10:18:40.796Z,23.80
2018-07-02T10:21:09.785Z,23.80
2018-07-02T10:23:38.777Z,24.20
2018-07-02T10:26:07.894Z,24.30
2018-07-02T10:28:36.874Z,24.30
2018-07-02T10:31:06.382Z,23.80
2018-07-02T10:33:35.358Z,24.00
2018-07-02T10:36:04.378Z,24.10
2018-07-02T10:38:33.295Z,24.60
2018-07-02T10:41:02.190Z,24.80
2018-07-02T10:43:31.074Z,24.40
2018-07-02T10:45:59.958Z,24.00
2018-07-02T10:48:28.890Z,24.30
2018-07-02T10:50:57.791Z,24.80
2018-07-02T10:53:26.774Z,25.10
2018-07-02T10:55:55.739Z,25.00
2018-07-02T10:58:24.698Z,25.20
2018-07-02T11:00:53.614Z,25.40
2018-07-02T11:03:22.510Z,25.70
2018-07-02T11:05:51.557Z,25.90
2018-07-02T11:08:20.474Z,26.00
2018-07-02T11:10:49.366Z,25.90
2018-07-02T11:13:18.258Z,25.60
2018-07-02T11:15:47.126Z,25.70
2018-07-02T11:18:16.024Z,25.80
2018-07-02T11:20:44.874Z,25.50
2018-07-02T11:23:13.765Z,25.80
2018-07-02T11:25:42.629Z,26.00
2018-07-02T11:28:11.509Z,25.80
2018-07-02T11:30:40.405Z,25.90
2018-07-02T11:33:09.303Z,26.40
2018-07-02T11:35:38.193Z,26.60
2018-07-02T11:38:07.163Z,27.00
2018-07-02T11:40:36.053Z,27.30
2018-07-02T11:43:05.078Z,27.30
2018-07-02T11:45:34.004Z,27.70
2018-07-02T11:48:02.911Z,27.70
2018-07-02T11:50:31.971Z,27.20
2018-07-02T11:53:01.390Z,27.10
2018-07-02T11:55:30.478Z,27.30
2018-07-02T11:57:59.362Z,27.40
2018-07-02T12:00:28.294Z,27.80
2018-07-02T12:02:57.319Z,28.00
2018-07-02T12:05:26.222Z,28.20
2018-07-02T12:07:55.183Z,28.50
2018-07-02T12:10:24.054Z,28.50
2018-07-02T12:12:52.978Z,28.70
2018-07-02T12:15:21.989Z,28.40
2018-07-02T12:17:50.858Z,28.20
2018-07-02T12:20:19.806Z,28.50
2018-07-02T12:22:48.671Z,28.60
2018-07-02T12:25:17.591Z,28.10
2018-07-02T12:30:14.969Z,28.10
2018-07-02T12:32:43.842Z,28.70
2018-07-02T12:35:12.734Z,28.90
2018-07-02T12:37:41.595Z,29.30
2018-07-02T12:40:10.495Z,29.20
2018-07-02T12:42:39.422Z,29.50
2018-07-02T12:45:08.462Z,28.90
2018-07-02T12:47:37.349Z,28.50
2018-07-02T12:50:06.890Z,28.30
2018-07-02T12:52:35.794Z,28.80
2018-07-02T12:55:05.019Z,28.90
2018-07-02T12:57:33.938Z,29.30
2018-07-02T13:00:03.003Z,30.00
2018-07-02T13:02:31.963Z,29.80
2018-07-02T13:05:01.166Z,29.90
2018-07-02T13:07:30.030Z,30.30
2018-07-02T13:09:58.933Z,30.70
2018-07-02T13:12:27.822Z,30.60
2018-07-02T13:14:56.694Z,30.50
2018-07-02T13:17:25.579Z,30.60
2018-07-02T13:19:54.494Z,30.30
2018-07-02T13:22:23.409Z,30.40
2018-07-02T13:24:52.578Z,30.80
2018-07-02T13:27:21.588Z,30.50
2018-07-02T13:29:50.521Z,30.30
2018-07-02T13:32:19.419Z,29.70
2018-07-02T13:34:48.386Z,30.60
2018-07-02T13:37:17.268Z,30.80
2018-07-02T13:39:46.152Z,31.10
2018-07-02T13:42:15.206Z,31.50
2018-07-02T13:44:44.310Z,31.50
2018-07-02T13:47:13.188Z,31.80
2018-07-02T13:49:42.094Z,31.90
2018-07-02T13:52:11.005Z,31.90
2018-07-02T13:54:39.893Z,32.10
2018-07-02T13:57:08.770Z,32.00
2018-07-02T13:59:37.647Z,31.80
2018-07-02T14:02:06.585Z,31.70
2018-07-02T14:04:35.602Z,31.50
2018-07-02T14:07:04.498Z,31.60
2018-07-02T14:09:33.820Z,31.70
2018-07-02T14:12:02.787Z,31.70
2018-07-02T14:14:31.714Z,32.30
2018-07-02T14:17:00.606Z,31.90
2018-07-02T14:19:29.506Z,32.00
2018-07-02T14:24:27.030Z,31.80
2018-07-02T14:26:55.993Z,32.10
2018-07-02T14:29:24.965Z,32.60
2018-07-02T14:31:53.966Z,32.60
2018-07-02T14:34:22.875Z,33.20
2018-07-02T14:36:51.828Z,33.60
2018-07-02T14:39:20.841Z,33.20
2018-07-02T14:41:50.012Z,32.70
2018-07-02T14:44:19.008Z,33.20
2018-07-02T14:46:47.869Z,33.90
2018-07-02T14:49:16.858Z,33.00
2018-07-02T14:51:45.822Z,32.70
2018-07-02T14:54:14.749Z,33.30
2018-07-02T14:56:43.597Z,33.20
2018-07-02T14:59:12.521Z,33.70
2018-07-02T15:01:41.510Z,33.50
2018-07-02T15:04:10.394Z,33.60
2018-07-02T15:06:39.330Z,33.50
2018-07-02T15:09:11.177Z,33.80
2018-07-02T15:11:40.232Z,33.60
2018-07-02T15:14:09.481Z,34.10
2018-07-02T15:16:38.442Z,34.10
2018-07-02T15:19:07.382Z,33.80
2018-07-02T15:21:36.362Z,33.80
2018-07-02T15:24:05.371Z,33.70
2018-07-02T15:26:34.238Z,33.80
2018-07-02T15:29:03.319Z,34.00
2018-07-02T15:31:32.178Z,33.60
2018-07-02T15:34:01.087Z,33.80
2018-07-02T15:36:29.954Z,33.60
2018-07-02T15:38:58.850Z,34.10
2018-07-02T15:41:27.778Z,34.10
2018-07-02T15:43:56.657Z,33.80
2018-07-02T15:46:25.577Z,33.50
2018-07-02T15:48:54.505Z,34.10
2018-07-02T15:51:23.392Z,34.40
2018-07-02T15:53:53.670Z,34.70
2018-07-02T15:56:22.602Z,34.80
2018-07-02T15:58:51.486Z,34.90
2018-07-02T16:01:20.851Z,35.10
2018-07-02T16:03:49.883Z,35.40
2018-07-02T16:06:19.874Z,35.30
2018-07-02T16:11:17.383Z,35.60
2018-07-02T16:13:46.291Z,35.50
2018-07-02T16:16:15.159Z,34.60
2018-07-02T16:18:44.094Z,34.40
2018-07-02T16:21:12.994Z,34.60
2018-07-02T16:23:41.863Z,35.10
2018-07-02T16:26:10.927Z,35.80
2018-07-02T16:28:39.877Z,35.50
2018-07-02T16:31:08.830Z,35.40
2018-07-02T16:33:37.790Z,35.10
2018-07-02T16:36:06.690Z,35.00
2018-07-02T16:38:35.782Z,35.50
2018-07-02T16:41:04.723Z,35.40
2018-07-02T16:43:33.938Z,35.40
2018-07-02T16:46:02.882Z,35.70
2018-07-02T16:48:31.771Z,35.90
2018-07-02T16:51:00.810Z,35.60
2018-07-02T16:53:29.767Z,35.80
2018-07-02T16:55:59.047Z,34.50
2018-07-02T16:58:27.974Z,35.10
2018-07-02T17:00:56.942Z,34.90
2018-07-02T17:03:25.992Z,35.30
2018-07-02T17:05:55.003Z,35.30
2018-07-02T17:08:23.893Z,34.80
2018-07-02T17:10:52.853Z,34.80
2018-07-02T17:13:21.940Z,33.60
2018-07-02T17:15:50.900Z,34.40
2018-07-02T17:18:21.259Z,34.30
2018-07-02T17:20:50.399Z,34.00
2018-07-02T17:23:19.278Z,33.40
2018-07-02T17:25:48.157Z,32.70
2018-07-02T17:28:17.037Z,33.30
2018-07-02T17:30:45.958Z,33.50
2018-07-02T17:33:14.829Z,33.40
2018-07-02T17:35:43.706Z,33.70
2018-07-02T17:38:12.608Z,33.90
2018-07-02T17:40:41.570Z,34.00
2018-07-02T17:43:10.508Z,34.60
2018-07-02T17:48:07.977Z,33.30
2018-07-02T17:50:36.926Z,32.60
2018-07-02T17:53:05.998Z,32.10
2018-07-02T17:55:35.042Z,31.50
2018-07-02T17:58:04.002Z,30.40
2018-07-02T18:00:32.906Z,29.60
2018-07-02T18:03:01.830Z,29.20
2018-07-02T18:05:30.743Z,28.90
2018-07-02T18:07:59.695Z,29.00
2018-07-02T18:10:28.583Z,28.70
2018-07-02T18:12:57.490Z,28.10
2018-07-02T18:15:26.439Z,27.30
2018-07-02T18:17:55.351Z,26.70
2018-07-02T18:20:24.320Z,26.30
2018-07-02T18:22:53.338Z,26.40
2018-07-02T18:25:22.363Z,26.30
2018-07-02T18:27:51.568Z,26.20
2018-07-02T18:30:20.824Z,26.10
2018-07-02T18:32:49.782Z,25.80
2018-07-02T18:35:18.745Z,25.60
2018-07-02T18:37:47.673Z,25.40
2018-07-02T18:40:16.667Z,25.20
2018-07-02T18:42:45.526Z,25.20
2018-07-02T18:45:14.436Z,25.00
2018-07-02T18:47:43.341Z,24.70
2018-07-02T18:50:12.295Z,24.60
2018-07-02T18:52:41.283Z,24.60
2018-07-02T18:55:10.210Z,24.40
2018-07-02T18:57:39.109Z,24.20
2018-07-02T19:00:08.031Z,24.10
2018-07-02T19:02:37.186Z,23.90
2018-07-02T19:05:06.370Z,23.70
2018-07-02T19:07:35.314Z,23.70
2018-07-02T19:10:04.961Z,23.50
2018-07-02T19:12:33.854Z,23.60
2018-07-02T19:15:02.886Z,23.40
2018-07-02T19:17:31.827Z,23.40
2018-07-02T19:20:00.715Z,23.30
2018-07-02T19:22:29.668Z,23.20
2018-07-02T19:24:58.555Z,23.20
2018-07-02T19:27:27.454Z,23.20
2018-07-02T19:29:56.403Z,23.20
2018-07-02T19:32:25.322Z,23.10
2018-07-02T19:34:54.255Z,23.00
2018-07-02T19:39:51.778Z,22.80
2018-07-02T19:42:20.706Z,22.60
2018-07-02T19:44:49.610Z,22.70
2018-07-02T19:47:18.662Z,22.70
2018-07-02T19:49:47.559Z,22.40
2018-07-02T19:52:16.450Z,22.30
2018-07-02T19:54:45.445Z,22.30
2018-07-02T19:57:14.341Z,22.10
2018-07-02T19:59:43.242Z,22.00
2018-07-02T20:02:12.182Z,21.90
2018-07-02T20:07:10.665Z,21.60
2018-07-02T20:09:39.546Z,21.60
2018-07-02T20:12:08.482Z,21.50
2018-07-02T20:14:37.422Z,21.60
2018-07-02T20:17:06.374Z,21.40
2018-07-02T20:19:36.262Z,21.30
2018-07-02T20:22:05.211Z,21.30
2018-07-02T20:24:34.105Z,21.10
2018-07-02T20:27:03.058Z,21.10
2018-07-02T20:29:32.027Z,21.00
2018-07-02T20:32:00.935Z,21.10
2018-07-02T20:34:29.859Z,20.90
2018-07-02T20:36:58.776Z,20.80
2018-07-02T20:39:27.686Z,20.80
2018-07-02T20:41:56.710Z,20.80
2018-07-02T20:44:26.017Z,20.80
2018-07-02T20:46:55.052Z,20.70
2018-07-02T20:49:24.519Z,20.60
2018-07-02T20:51:53.590Z,20.40
2018-07-02T20:54:22.687Z,20.40
2018-07-02T20:56:51.826Z,20.50
2018-07-02T20:59:20.830Z,20.40
2018-07-02T21:02:03.162Z,20.20
2018-07-02T21:04:32.552Z,20.20
2018-07-02T21:07:03.348Z,20.20
2018-07-02T21:09:32.258Z,20.20
2018-07-02T21:12:02.051Z,20.10
2018-07-02T21:14:32.446Z,19.90
2018-07-02T21:17:01.360Z,19.90
2018-07-02T21:19:30.290Z,19.90
2018-07-02T21:22:02.007Z,19.80
2018-07-02T21:24:31.244Z,19.60
2018-07-02T21:27:00.158Z,19.70
2018-07-02T21:29:29.175Z,19.70
2018-07-02T21:31:58.079Z,19.70
2018-07-02T21:34:27.142Z,19.60
2018-07-02T21:36:56.233Z,19.60
2018-07-02T21:39:27.673Z,19.50
2018-07-02T21:41:56.714Z,19.40
2018-07-02T21:44:25.712Z,19.20
2018-07-02T21:46:57.251Z,19.20
2018-07-02T21:52:03.292Z,19.10
2018-07-02T21:54:32.870Z,19.00
2018-07-02T21:57:02.246Z,18.90
2018-07-02T22:02:01.691Z,18.90
2018-07-02T22:04:30.622Z,18.80
2018-07-02T22:09:48.548Z,18.60
2018-07-02T22:12:17.485Z,18.50
2018-07-02T22:14:46.373Z,18.50
2018-07-02T22:17:15.270Z,18.50
2018-07-02T22:19:44.141Z,18.30
2018-07-02T22:22:13.066Z,18.20
2018-07-02T22:24:48.305Z,18.20
2018-07-02T22:27:17.374Z,18.10
2018-07-02T22:29:46.262Z,18.00
2018-07-02T22:32:15.182Z,18.00
2018-07-02T22:34:44.117Z,17.90
2018-07-02T22:37:13.041Z,17.90
2018-07-02T22:39:41.990Z,17.90
2018-07-02T22:42:10.881Z,17.80
2018-07-02T22:47:08.266Z,17.70
2018-07-02T22:49:37.306Z,17.70
2018-07-02T22:52:06.190Z,17.60
2018-07-02T22:54:35.058Z,17.60
2018-07-02T22:57:04.027Z,17.60
2018-07-02T22:59:32.906Z,17.70
2018-07-02T23:02:01.789Z,17.70
2018-07-02T23:04:30.657Z,17.60
2018-07-02T23:06:59.566Z,17.60
2018-07-02T23:09:28.446Z,17.60
2018-07-02T23:11:57.342Z,17.50
2018-07-02T23:14:26.257Z,17.40
2018-07-02T23:16:55.204Z,17.40
2018-07-02T23:19:24.103Z,17.40
2018-07-02T23:21:53.121Z,17.40
2018-07-02T23:24:22.046Z,17.40
2018-07-02T23:26:50.975Z,17.40
2018-07-02T23:29:19.906Z,17.30
2018-07-02T23:31:48.780Z,17.30
2018-07-02T23:34:17.658Z,17.30
2018-07-02T23:36:46.609Z,17.20
2018-07-02T23:39:15.455Z,17.20
2018-07-02T23:41:44.626Z,17.10
2018-07-02T23:44:13.547Z,17.10
2018-07-02T23:46:42.533Z,17.10
2018-07-02T23:49:11.399Z,17.10
2018-07-02T23:51:40.273Z,17.10
2018-07-02T23:54:09.162Z,17.00
2018-07-02T23:56:38.936Z,17.00
2018-07-02T23:59:07.832Z,17.00
